createdAt,value
2023-05-05T00:01:02.152Z,1.00
2023-05-05T00:03:30.800Z,1.00
2023-05-05T00:05:58.910Z,1.00
2023-05-05T00:08:27.087Z,1.00
2023-05-05T00:10:56.006Z,1.00
2023-05-05T00:13:25.617Z,1.00
2023-05-05T00:15:55.187Z,1.00
2023-05-05T00:18:23.439Z,1.00
2023-05-05T00:20:51.546Z,1.00
2023-05-05T00:23:20.840Z,1.00
2023-05-05T00:25:48.937Z,1.00
2023-05-05T00:28:17.024Z,1.00
2023-05-05T00:30:46.652Z,1.00
2023-05-05T00:33:14.766Z,1.00
2023-05-05T00:35:43.099Z,1.00
2023-05-05T00:38:11.133Z,1.00
2023-05-05T00:40:39.185Z,1.00
2023-05-05T00:43:07.577Z,1.00
2023-05-05T00:45:37.355Z,1.00
2023-05-05T00:48:10.290Z,1.00
2023-05-05T00:50:39.327Z,1.00
2023-05-05T00:53:08.041Z,1.00
2023-05-05T00:55:36.647Z,1.00
2023-05-05T00:58:05.295Z,1.00
2023-05-05T01:00:34.272Z,1.00
2023-05-05T01:03:03.164Z,1.00
2023-05-05T01:05:38.204Z,1.00
2023-05-05T01:08:19.468Z,1.00
2023-05-05T01:10:54.208Z,1.00
2023-05-05T01:13:32.587Z,1.00
2023-05-05T01:16:08.411Z,1.00
2023-05-05T01:18:45.500Z,1.00
2023-05-05T01:21:21.175Z,1.00
2023-05-05T01:24:21.062Z,1.00
2023-05-05T01:27:00.096Z,1.00
2023-05-05T01:29:49.401Z,1.00
2023-05-05T01:32:23.178Z,1.00
2023-05-05T01:34:57.246Z,1.00
2023-05-05T01:37:30.107Z,1.00
2023-05-05T01:40:01.731Z,1.00
2023-05-05T01:42:31.697Z,1.00
2023-05-05T01:45:00.620Z,1.00
2023-05-05T01:47:32.098Z,1.00
2023-05-05T01:50:01.269Z,1.00
2023-05-05T01:52:31.036Z,1.00
2023-05-05T01:55:00.236Z,1.00
2023-05-05T01:57:31.973Z,1.00
2023-05-05T02:00:01.778Z,1.00
2023-05-05T02:02:34.190Z,1.00
2023-05-05T02:05:04.308Z,1.00
2023-05-05T02:07:34.133Z,1.00
2023-05-05T02:10:03.273Z,1.00
2023-05-05T02:12:32.450Z,1.00
2023-05-05T02:15:02.367Z,1.00
2023-05-05T02:17:33.047Z,1.00
2023-05-05T02:20:02.942Z,1.00
2023-05-05T02:22:31.652Z,1.00
2023-05-05T02:25:01.072Z,1.00
2023-05-05T02:27:30.053Z,1.00
2023-05-05T02:30:00.697Z,1.00
2023-05-05T02:32:35.310Z,1.00
2023-05-05T02:35:11.869Z,1.00
2023-05-05T02:37:47.525Z,1.00
2023-05-05T02:40:21.124Z,1.00
2023-05-05T02:42:51.120Z,1.00
2023-05-05T02:45:23.670Z,1.00
2023-05-05T02:47:53.318Z,48.50
2023-05-05T02:50:22.733Z,98.60
2023-05-05T02:53:01.669Z,99.90
2023-05-05T02:55:38.186Z,99.90
2023-05-05T02:58:08.556Z,99.90
2023-05-05T03:00:48.526Z,99.90
2023-05-05T03:03:26.993Z,99.90
2023-05-05T03:06:01.919Z,99.90
2023-05-05T03:08:34.775Z,99.90
2023-05-05T03:11:07.896Z,99.90
2023-05-05T03:13:43.545Z,99.90
2023-05-05T03:16:18.787Z,99.90
2023-05-05T03:18:51.053Z,99.90
2023-05-05T03:21:19.890Z,99.90
2023-05-05T03:23:48.014Z,99.90
2023-05-05T03:26:21.274Z,99.90
2023-05-05T03:28:49.323Z,99.90
2023-05-05T03:31:28.328Z,99.90
2023-05-05T03:34:00.846Z,99.90
2023-05-05T03:36:33.777Z,99.90
2023-05-05T03:39:02.232Z,99.90
2023-05-05T03:41:33.956Z,99.90
2023-05-05T03:44:02.104Z,99.90
2023-05-05T03:46:30.705Z,99.90
2023-05-05T03:49:00.216Z,99.90
2023-05-05T03:51:29.445Z,99.90
2023-05-05T03:53:57.964Z,99.90
2023-05-05T03:56:25.987Z,99.90
2023-05-05T03:58:54.653Z,99.90
2023-05-05T04:01:23.310Z,99.90
2023-05-05T04:03:52.054Z,99.90
2023-05-05T04:06:22.376Z,99.90
2023-05-05T04:08:50.408Z,99.90
2023-05-05T04:11:18.650Z,99.90
2023-05-05T04:13:47.018Z,99.90
2023-05-05T04:16:15.275Z,99.90
2023-05-05T04:18:43.494Z,99.90
2023-05-05T04:21:11.671Z,99.90
2023-05-05T04:23:42.034Z,99.90
2023-05-05T04:26:10.171Z,99.90
2023-05-05T04:28:38.383Z,99.90
2023-05-05T04:31:06.551Z,99.90
2023-05-05T04:33:37.851Z,1.00
2023-05-05T04:36:06.607Z,1.00
2023-05-05T04:38:34.979Z,1.00
2023-05-05T04:41:07.461Z,1.00
2023-05-05T04:43:37.121Z,1.00
2023-05-05T04:46:06.051Z,1.00
2023-05-05T04:48:37.869Z,1.00
2023-05-05T04:51:06.902Z,1.00
2023-05-05T04:53:36.067Z,1.00
2023-05-05T04:56:04.400Z,1.00
2023-05-05T04:58:33.866Z,1.00
2023-05-05T05:01:01.930Z,1.00
2023-05-05T05:03:32.026Z,1.00
2023-05-05T05:06:00.287Z,99.90
2023-05-05T05:08:28.392Z,1.00
2023-05-05T05:10:56.461Z,1.00
2023-05-05T05:13:24.584Z,1.00
2023-05-05T05:15:54.048Z,1.00
2023-05-05T05:18:22.336Z,1.00
2023-05-05T05:20:51.635Z,1.00
2023-05-05T05:23:19.757Z,99.90
2023-05-05T05:25:48.212Z,99.90
2023-05-05T05:28:18.704Z,99.90
2023-05-05T05:30:53.847Z,99.90
2023-05-05T05:33:23.076Z,99.90
2023-05-05T05:35:52.929Z,99.90
2023-05-05T05:38:33.634Z,99.90
2023-05-05T05:41:08.099Z,99.90
2023-05-05T05:43:38.967Z,99.90
2023-05-05T05:46:11.441Z,99.90
2023-05-05T05:48:41.418Z,99.90
2023-05-05T05:51:10.220Z,99.90
2023-05-05T05:53:39.886Z,99.90
2023-05-05T05:56:11.216Z,99.90
2023-05-05T05:58:40.763Z,99.90
2023-05-05T06:01:14.189Z,99.90
2023-05-05T06:03:43.306Z,99.90
2023-05-05T06:06:12.444Z,99.90
2023-05-05T06:08:41.313Z,99.90
2023-05-05T06:11:09.818Z,99.90
2023-05-05T06:13:38.624Z,99.90
2023-05-05T06:16:08.871Z,99.90
2023-05-05T06:18:41.116Z,99.90
2023-05-05T06:21:10.046Z,99.90
2023-05-05T06:23:39.151Z,99.90
2023-05-05T06:26:09.139Z,99.90
2023-05-05T06:28:37.990Z,99.90
2023-05-05T06:31:06.584Z,99.90
2023-05-05T06:33:35.257Z,99.90
2023-05-05T06:36:06.020Z,99.90
2023-05-05T06:38:35.150Z,99.90
2023-05-05T06:41:04.879Z,99.90
2023-05-05T06:43:33.433Z,99.90
2023-05-05T06:46:05.522Z,99.90
2023-05-05T06:48:34.484Z,99.90
2023-05-05T06:51:04.798Z,99.90
2023-05-05T06:53:33.772Z,99.90
2023-05-05T06:56:02.147Z,99.90
2023-05-05T06:58:31.625Z,99.90
2023-05-05T07:01:00.282Z,99.90
2023-05-05T07:03:29.452Z,99.90
2023-05-05T07:05:57.909Z,99.90
2023-05-05T07:08:28.350Z,99.90
2023-05-05T07:10:56.981Z,99.90
2023-05-05T07:13:25.738Z,99.90
2023-05-05T07:15:54.379Z,99.90
2023-05-05T07:18:23.335Z,99.90
2023-05-05T07:20:52.068Z,99.90
2023-05-05T07:23:23.172Z,99.90
2023-05-05T07:25:53.588Z,99.90
2023-05-05T07:28:22.414Z,99.90
2023-05-05T07:30:52.551Z,99.90
2023-05-05T07:33:21.284Z,99.90
2023-05-05T07:35:49.635Z,99.90
2023-05-05T07:38:18.314Z,99.90
2023-05-05T07:40:49.011Z,99.90
2023-05-05T07:43:19.157Z,99.90
2023-05-05T07:45:48.077Z,99.90
2023-05-05T07:48:16.757Z,99.90
2023-05-05T07:50:47.827Z,99.90
2023-05-05T07:53:17.687Z,99.90
2023-05-05T07:55:46.720Z,99.90
2023-05-05T07:58:15.127Z,99.90
2023-05-05T08:00:45.284Z,99.90
2023-05-05T08:03:14.120Z,99.90
2023-05-05T08:05:43.351Z,99.90
2023-05-05T08:08:12.096Z,99.90
2023-05-05T08:10:41.430Z,99.90
2023-05-05T08:13:12.279Z,99.90
2023-05-05T08:15:41.354Z,99.90
2023-05-05T08:18:11.922Z,99.90
2023-05-05T08:20:43.820Z,99.90
2023-05-05T08:23:12.548Z,99.90
2023-05-05T08:25:41.467Z,99.90
2023-05-05T08:28:10.293Z,99.90
2023-05-05T08:30:40.011Z,99.90
2023-05-05T08:33:08.787Z,99.90
2023-05-05T08:35:41.862Z,99.90
2023-05-05T08:38:12.330Z,99.90
2023-05-05T08:40:44.875Z,99.90
2023-05-05T08:43:16.123Z,99.90
2023-05-05T08:45:45.362Z,99.90
2023-05-05T08:48:15.289Z,99.90
2023-05-05T08:50:50.179Z,99.90
2023-05-05T08:53:20.155Z,99.90
2023-05-05T08:55:52.889Z,99.90
2023-05-05T08:58:22.485Z,99.90
2023-05-05T09:00:52.453Z,99.90
2023-05-05T09:03:21.946Z,99.90
2023-05-05T09:05:52.483Z,99.90
2023-05-05T09:08:22.306Z,99.90
2023-05-05T09:10:52.873Z,99.90
2023-05-05T09:13:22.550Z,99.90
2023-05-05T09:15:51.563Z,99.90
2023-05-05T09:18:20.767Z,99.90
2023-05-05T09:20:50.019Z,99.90
2023-05-05T09:23:21.604Z,99.90
2023-05-05T09:26:05.142Z,99.90
2023-05-05T09:28:37.562Z,99.90
2023-05-05T09:31:20.145Z,99.90
2023-05-05T09:33:49.436Z,97.40
2023-05-05T09:36:20.230Z,99.90
2023-05-05T09:39:07.558Z,99.90
2023-05-05T09:41:43.599Z,99.90
2023-05-05T09:44:16.349Z,87.10
2023-05-05T09:46:53.210Z,83.50
2023-05-05T09:49:25.786Z,80.80
2023-05-05T09:51:56.979Z,72.70
2023-05-05T09:54:29.660Z,83.70
2023-05-05T09:56:59.890Z,69.00
2023-05-05T09:59:31.118Z,65.70
2023-05-05T10:02:12.961Z,61.20
2023-05-05T10:04:49.641Z,70.10
2023-05-05T10:07:25.886Z,62.90
2023-05-05T10:09:56.970Z,63.10
2023-05-05T10:12:26.928Z,61.90
2023-05-05T10:17:30.143Z,49.00
2023-05-05T10:20:00.985Z,57.50
2023-05-05T10:22:34.276Z,59.60
2023-05-05T10:25:11.166Z,60.90
2023-05-05T10:27:45.801Z,42.30
2023-05-05T10:30:21.897Z,40.70
2023-05-05T10:33:04.060Z,41.70
2023-05-05T10:35:42.012Z,25.90
2023-05-05T10:38:11.465Z,23.20
2023-05-05T10:40:46.536Z,28.70
2023-05-05T10:43:16.758Z,26.20
2023-05-05T10:45:46.113Z,31.10
2023-05-05T10:48:22.881Z,32.10
2023-05-05T10:50:57.124Z,33.30
2023-05-05T10:53:31.199Z,20.60
2023-05-05T10:56:08.137Z,12.50
2023-05-05T10:58:51.277Z,24.90
2023-05-05T11:01:33.302Z,28.30
2023-05-05T11:04:22.101Z,21.40
2023-05-05T11:07:27.509Z,12.60
2023-05-05T11:09:58.052Z,12.30
2023-05-05T11:12:28.852Z,13.60
2023-05-05T11:15:42.609Z,12.90
2023-05-05T11:18:31.152Z,6.50
2023-05-05T11:21:15.624Z,8.80
2023-05-05T11:23:52.323Z,1.70
2023-05-05T11:26:51.631Z,20.30
2023-05-05T11:29:22.120Z,8.70
2023-05-05T11:32:16.054Z,8.60
2023-05-05T11:34:52.071Z,14.90
2023-05-05T11:37:25.848Z,7.90
2023-05-05T11:40:03.586Z,1.00
2023-05-05T11:42:33.469Z,1.00
2023-05-05T11:45:04.518Z,1.00
2023-05-05T11:47:34.143Z,1.00
2023-05-05T11:50:21.772Z,1.00
2023-05-05T11:52:51.357Z,1.00
2023-05-05T11:55:23.965Z,1.00
2023-05-05T11:57:52.772Z,1.00
2023-05-05T12:00:34.284Z,1.00
2023-05-05T12:03:02.843Z,1.00
2023-05-05T12:05:33.588Z,1.00
2023-05-05T12:08:03.451Z,1.00
2023-05-05T12:10:32.246Z,1.00
2023-05-05T12:13:03.092Z,1.00
2023-05-05T12:15:37.405Z,1.00
2023-05-05T12:18:06.563Z,1.00
2023-05-05T12:20:37.199Z,1.00
2023-05-05T12:23:06.316Z,1.00
2023-05-05T12:25:39.709Z,1.00
2023-05-05T12:28:09.780Z,1.00
2023-05-05T12:30:44.311Z,1.00
2023-05-05T12:33:12.685Z,1.00
2023-05-05T12:35:42.121Z,1.00
2023-05-05T12:38:11.054Z,1.00
2023-05-05T12:40:58.303Z,1.00
2023-05-05T12:43:32.099Z,1.00
2023-05-05T12:46:17.827Z,1.00
2023-05-05T12:48:48.376Z,1.00
2023-05-05T12:51:23.736Z,1.00
2023-05-05T12:54:05.744Z,1.00
2023-05-05T12:56:36.832Z,1.00
2023-05-05T12:59:07.991Z,1.00
2023-05-05T13:01:49.764Z,1.00
2023-05-05T13:04:19.626Z,1.00
2023-05-05T13:06:54.051Z,1.00
2023-05-05T13:09:30.403Z,1.00
2023-05-05T13:12:00.106Z,1.00
2023-05-05T13:14:29.260Z,1.00
2023-05-05T13:17:00.766Z,1.00
2023-05-05T13:19:29.777Z,1.00
2023-05-05T13:22:00.286Z,1.00
2023-05-05T13:24:46.539Z,1.00
2023-05-05T13:27:19.469Z,1.00
2023-05-05T13:29:48.438Z,1.00
2023-05-05T13:32:19.173Z,1.00
2023-05-05T13:34:48.495Z,1.00
2023-05-05T13:37:17.698Z,1.00
2023-05-05T13:39:46.583Z,1.00
2023-05-05T13:42:15.141Z,1.00
2023-05-05T13:44:43.991Z,1.00
2023-05-05T13:49:44.601Z,1.00
2023-05-05T13:52:13.307Z,1.00
2023-05-05T13:54:42.435Z,1.00
2023-05-05T13:57:12.950Z,1.00
2023-05-05T13:59:43.267Z,1.00
2023-05-05T14:02:12.367Z,1.00
2023-05-05T14:04:41.640Z,1.00
2023-05-05T14:07:13.171Z,1.00
2023-05-05T14:09:42.147Z,1.00
2023-05-05T14:12:10.777Z,1.00
2023-05-05T14:14:40.581Z,1.00
2023-05-05T14:17:09.234Z,1.00
2023-05-05T14:19:39.116Z,1.00
2023-05-05T14:22:07.968Z,1.00
2023-05-05T14:24:39.119Z,1.00
2023-05-05T14:27:07.761Z,1.00
2023-05-05T14:29:36.976Z,1.00
2023-05-05T14:32:07.095Z,1.00
2023-05-05T14:34:35.707Z,1.00
2023-05-05T14:37:04.734Z,1.00
2023-05-05T14:39:33.630Z,1.00
2023-05-05T14:42:05.140Z,1.00
2023-05-05T14:44:34.099Z,1.00
2023-05-05T14:47:02.847Z,1.00
2023-05-05T14:49:31.685Z,1.00
2023-05-05T14:52:00.728Z,1.00
2023-05-05T14:54:29.499Z,1.00
2023-05-05T14:57:00.767Z,1.00
2023-05-05T14:59:31.039Z,1.00
2023-05-05T15:01:59.818Z,1.00
2023-05-05T15:04:28.754Z,1.00
2023-05-05T15:06:59.132Z,1.00
2023-05-05T15:09:29.677Z,1.00
2023-05-05T15:11:58.485Z,1.00
2023-05-05T15:14:27.087Z,1.00
2023-05-05T15:16:58.609Z,1.00
2023-05-05T15:19:27.292Z,1.00
2023-05-05T15:21:56.066Z,1.00
2023-05-05T15:24:24.762Z,1.00
2023-05-05T15:26:54.426Z,1.00
2023-05-05T15:29:24.448Z,1.00
2023-05-05T15:31:53.457Z,1.00
2023-05-05T15:34:23.341Z,1.00
2023-05-05T15:36:52.066Z,1.00
2023-05-05T15:39:21.160Z,1.00
2023-05-05T15:41:50.973Z,1.00
2023-05-05T15:44:24.020Z,1.00
2023-05-05T15:46:53.542Z,1.00
2023-05-05T15:49:23.832Z,1.00
2023-05-05T15:51:52.788Z,1.00
2023-05-05T15:54:21.317Z,1.00
2023-05-05T15:56:50.259Z,1.00
2023-05-05T15:59:19.513Z,1.00
2023-05-05T16:01:49.586Z,1.00
2023-05-05T16:04:18.473Z,1.00
2023-05-05T16:06:48.937Z,1.00
2023-05-05T16:09:18.004Z,1.00
2023-05-05T16:11:46.622Z,1.00
2023-05-05T16:14:15.529Z,1.00
2023-05-05T16:16:45.287Z,1.00
2023-05-05T16:19:14.376Z,1.00
2023-05-05T16:21:43.302Z,1.00
2023-05-05T16:24:17.097Z,1.00
2023-05-05T16:26:47.114Z,1.00
2023-05-05T16:29:16.987Z,1.00
2023-05-05T16:31:46.315Z,1.00
2023-05-05T16:34:15.219Z,1.00
2023-05-05T16:36:44.538Z,1.00
2023-05-05T16:39:16.066Z,1.00
2023-05-05T16:41:45.093Z,1.00
2023-05-05T16:44:14.816Z,1.00
2023-05-05T16:46:43.620Z,1.00
2023-05-05T16:49:12.613Z,1.00
2023-05-05T16:51:41.484Z,1.00
2023-05-05T16:54:09.965Z,1.00
2023-05-05T16:56:41.034Z,1.00
2023-05-05T16:59:10.060Z,1.00
2023-05-05T17:01:38.830Z,1.00
2023-05-05T17:04:07.990Z,1.00
2023-05-05T17:06:36.415Z,1.00
2023-05-05T17:09:06.325Z,1.00
2023-05-05T17:11:35.343Z,1.00
2023-05-05T17:14:06.083Z,1.00
2023-05-05T17:16:34.744Z,1.00
2023-05-05T17:19:04.363Z,1.00
2023-05-05T17:21:33.453Z,1.00
2023-05-05T17:24:02.665Z,1.00
2023-05-05T17:26:33.294Z,1.00
2023-05-05T17:29:02.132Z,1.00
2023-05-05T17:31:33.065Z,1.00
2023-05-05T17:34:01.693Z,1.00
2023-05-05T17:36:30.704Z,1.00
2023-05-05T17:39:00.299Z,1.00
2023-05-05T17:41:30.102Z,1.00
2023-05-05T17:43:59.695Z,1.00
2023-05-05T17:46:29.597Z,1.00
2023-05-05T17:49:00.605Z,1.00
2023-05-05T17:51:31.771Z,1.00
2023-05-05T17:54:00.007Z,1.00
2023-05-05T17:56:29.059Z,1.00
2023-05-05T17:58:57.738Z,1.00
2023-05-05T18:01:28.154Z,1.00
2023-05-05T18:03:57.060Z,1.00
2023-05-05T18:06:27.628Z,1.00
2023-05-05T18:08:56.532Z,1.00
2023-05-05T18:11:29.054Z,1.00
2023-05-05T18:13:58.052Z,1.00
2023-05-05T18:16:27.037Z,1.00
2023-05-05T18:18:55.656Z,1.00
2023-05-05T18:21:24.597Z,1.00
2023-05-05T18:24:01.701Z,1.00
2023-05-05T18:26:36.833Z,1.00
2023-05-05T18:29:05.860Z,1.00
2023-05-05T18:31:34.703Z,1.00
2023-05-05T18:34:04.167Z,1.00
2023-05-05T18:36:33.144Z,1.00
2023-05-05T18:39:03.951Z,1.00
2023-05-05T18:41:33.096Z,1.00
2023-05-05T18:44:01.824Z,1.00
2023-05-05T18:46:30.711Z,1.00
2023-05-05T18:49:00.653Z,1.00
2023-05-05T18:51:29.442Z,1.00
2023-05-05T18:53:58.377Z,11.80
2023-05-05T18:56:29.888Z,10.00
2023-05-05T18:58:59.707Z,3.00
2023-05-05T19:01:28.917Z,6.50
2023-05-05T19:03:57.519Z,22.40
2023-05-05T19:06:26.556Z,57.30
2023-05-05T19:08:56.769Z,99.90
2023-05-05T19:11:25.644Z,99.90
2023-05-05T19:13:55.738Z,99.90
2023-05-05T19:16:24.048Z,91.20
2023-05-05T19:18:54.111Z,50.40
2023-05-05T19:21:22.092Z,99.90
2023-05-05T19:23:50.309Z,99.90
2023-05-05T19:26:18.444Z,99.90
2023-05-05T19:28:46.499Z,1.00
2023-05-05T19:31:15.875Z,94.20
2023-05-05T19:33:45.663Z,88.60
2023-05-05T19:36:13.895Z,99.90
2023-05-05T19:38:44.332Z,99.90
2023-05-05T19:41:12.977Z,99.90
2023-05-05T19:43:41.067Z,99.90
2023-05-05T19:46:09.109Z,99.90
2023-05-05T19:48:39.005Z,1.00
2023-05-05T19:51:07.086Z,1.00
2023-05-05T19:53:35.755Z,1.00
2023-05-05T19:56:04.781Z,1.00
2023-05-05T19:58:53.426Z,1.00
2023-05-05T20:01:21.575Z,99.90
2023-05-05T20:03:51.292Z,1.00
2023-05-05T20:06:19.416Z,1.00
2023-05-05T20:08:47.466Z,99.90
2023-05-05T20:11:16.838Z,99.90
2023-05-05T20:13:45.287Z,1.00
2023-05-05T20:16:14.773Z,1.00
2023-05-05T20:18:42.790Z,1.00
2023-05-05T20:21:12.193Z,1.00
2023-05-05T20:23:40.260Z,1.00
2023-05-05T20:26:08.349Z,1.00
2023-05-05T20:28:39.025Z,1.00
2023-05-05T20:31:07.227Z,71.80
2023-05-05T20:33:35.542Z,73.80
2023-05-05T20:36:03.683Z,1.00
2023-05-05T20:38:33.090Z,1.00
2023-05-05T20:41:01.283Z,1.00
2023-05-05T20:43:29.494Z,1.00
2023-05-05T20:45:57.532Z,1.00
2023-05-05T20:48:25.678Z,52.30
2023-05-05T20:50:53.698Z,99.90
2023-05-05T20:53:24.268Z,99.90
2023-05-05T20:55:55.348Z,99.90
2023-05-05T20:58:23.529Z,99.90
2023-05-05T21:00:52.072Z,99.90
2023-05-05T21:03:20.120Z,99.90
2023-05-05T21:05:48.271Z,99.90
2023-05-05T21:08:16.315Z,99.90
2023-05-05T21:10:44.420Z,98.00
2023-05-05T21:13:14.248Z,99.90
2023-05-05T21:15:42.296Z,21.00
2023-05-05T21:18:10.422Z,1.00
2023-05-05T21:20:38.434Z,1.00
2023-05-05T21:23:06.419Z,1.00
2023-05-05T21:25:34.581Z,1.00
2023-05-05T21:28:02.578Z,1.00
2023-05-05T21:30:32.011Z,1.00
2023-05-05T21:33:00.416Z,1.00
2023-05-05T21:35:28.501Z,1.00
2023-05-05T21:37:56.560Z,1.00
2023-05-05T21:40:24.608Z,4.10
2023-05-05T21:42:52.713Z,38.20
2023-05-05T21:45:21.055Z,1.00
2023-05-05T21:47:50.819Z,1.00
2023-05-05T21:50:18.971Z,99.90
2023-05-05T21:52:46.988Z,99.90
2023-05-05T21:55:15.474Z,99.90
2023-05-05T21:57:44.627Z,94.70
2023-05-05T22:00:16.625Z,1.00
2023-05-05T22:02:44.940Z,1.00
2023-05-05T22:05:14.457Z,99.90
2023-05-05T22:07:42.489Z,40.40
2023-05-05T22:10:11.186Z,99.90
2023-05-05T22:12:39.576Z,99.90
2023-05-05T22:15:09.220Z,99.90
2023-05-05T22:17:37.709Z,99.90
2023-05-05T22:20:06.697Z,99.90
2023-05-05T22:22:36.189Z,33.90
2023-05-05T22:25:04.346Z,1.00
2023-05-05T22:27:32.365Z,1.00
2023-05-05T22:30:00.479Z,2.10
2023-05-05T22:32:28.518Z,26.10
2023-05-05T22:34:56.675Z,1.00
2023-05-05T22:37:24.756Z,1.00
2023-05-05T22:39:54.147Z,57.60
2023-05-05T22:42:22.137Z,1.00
2023-05-05T22:44:50.275Z,1.00
2023-05-05T22:47:19.066Z,1.00
2023-05-05T22:49:47.325Z,1.00
2023-05-05T22:52:15.925Z,1.00
2023-05-05T22:54:44.001Z,1.00
2023-05-05T22:57:13.460Z,1.00
2023-05-05T22:59:41.516Z,5.40
2023-05-05T23:02:09.578Z,99.90
2023-05-05T23:04:37.851Z,99.90
2023-05-05T23:07:05.901Z,99.90
2023-05-05T23:09:33.928Z,99.90
2023-05-05T23:12:01.881Z,99.90
2023-05-05T23:14:31.266Z,99.90
2023-05-05T23:16:59.606Z,99.90
2023-05-05T23:19:28.998Z,99.90
2023-05-05T23:21:57.038Z,99.90
2023-05-05T23:24:25.215Z,99.90
2023-05-05T23:26:53.493Z,99.90
2023-05-05T23:29:21.826Z,99.90
2023-05-05T23:31:51.734Z,1.00
2023-05-05T23:34:19.776Z,99.90
2023-05-05T23:36:47.854Z,99.90
2023-05-05T23:39:16.501Z,99.90
2023-05-05T23:41:44.512Z,99.90
2023-05-05T23:44:12.497Z,99.90
2023-05-05T23:46:40.596Z,99.90
2023-05-05T23:49:09.943Z,1.00
2023-05-05T23:51:38.010Z,1.00
2023-05-05T23:54:06.086Z,1.00
2023-05-05T23:56:34.140Z,1.00
2023-05-05T23:59:02.153Z,1.00
